Tiempo atmosférico en la estación meteorológica de Irún, Gipuzkoa (120 m.)



Fecha
DESCASC
Temp. máxima en grados centígrados (hora)
DESCASC
Temp. mínima en grados centígrados (hora)
DESCASC
Temp. media en grados centígrados
DESCASC
Racha de viento máxima en m/sg (hora)
DESCASC
Velocidad máxima media en intervalos de 10 minutos(hora)
DESCASC
Precipitaciones diarias en mm
DESCASC
Precipitaciones de 00:00 a 06:00 en mm
DESCASC
Precipitaciones de 06:00 a 12:00 en mm
DESCASC
Precipitaciones de 12:00 a 18:00 en mm
DESCASC
Precipitaciones de 18:00 a 24:00 en mm
DESCASC
28-02-2021 13 (16:50) 6.3 (06:20) 9.7 4.72 (00:40) 2.5 (00:40) 0.2 0 0 0 0.2
27-02-2021 13.2 (14:20) 8.5 (19:00) 10.8 6.67 (16:30) 3.06 (21:20) 0 0 0 0 0
26-02-2021 13.5 (13:40) 10.7 (22:50) 12.1 4.17 (15:10) 1.94 (15:20) 0.6 0.4 0.2 0 0
25-02-2021 18.7 (00:50) 12.1 (00:00) 15.4 13.89 (00:50) 5.28 (00:50) 0 0 0 0 0
24-02-2021 22.2 (15:30) 16.1 (00:00) 19.2 16.67 (01:10) 8.33 (22:10) 0 0 0 0 0
23-02-2021 19.2 (15:20) 7.1 (00:00) 13.2 15.83 (11:30) 6.11 (11:50) 0 0 0 0 0
22-02-2021 11.2 (14:50) 7.6 (00:00) 9.4 9.17 (11:20) 4.44 (06:00) 34.8 14.8 18.6 1.4 0
21-02-2021 21.1 (12:40) 9.4 (00:00) 15.3 23.61 (07:00) 12.22 (07:00) 2.4 0 0 0 2.4
20-02-2021 23.5 (16:00) 18.7 (00:00) 21.1 26.94 (09:50) 13.61 (10:10) 0 0 0 0 0
19-02-2021 21.7 (15:40) 9.9 (00:00) 15.8 16.11 (20:10) 5.83 (20:30) 0 0 0 0 0
18-02-2021 18.7 (01:30) 10 (00:00) 14.4 18.61 (05:40) 7.78 (06:00) 0 0 0 0 0
17-02-2021 20.3 (15:40) 8.7 (00:00) 14.5 13.89 (23:59) 5.28 (23:20) 0 0 0 0 0
16-02-2021 18.7 (13:20) 9.5 (00:00) 14.1 14.72 (14:10) 6.67 (13:50) 2 0 0 0 2
15-02-2021 19.4 (15:50) 12 (00:00) 15.7 9.72 (18:00) 4.72 (17:30) 0 0 0 0 0
14-02-2021 20.3 (15:00) 7.1 (00:00) 13.7 10 (21:30) 4.17 (21:30) 0 0 0 0 0
13-02-2021 14.3 (13:30) 8.4 (00:00) 11.3 4.44 (03:20) 2.5 (06:10) 0.6 0.6 0 0 0
12-02-2021 17.1 (03:40) 10.5 (00:00) 13.8 15.56 (11:40) 6.67 (12:50) 28 0 6.2 3 18.8
11-02-2021 19.6 (14:50) 7 (00:00) 13.3 5.83 (14:30) 2.5 (14:50) 0 0 0 0 0
10-02-2021 10.6 (00:30) 8 (00:00) 9.3 14.17 (17:30) 5.28 (17:30) 6.6 0 1.4 5.2 0
09-02-2021 13.9 (12:30) 9.3 (00:00) 11.6 14.17 (09:40) 4.44 (16:20) 1 0 0.2 0.6 0.2
08-02-2021 14 (15:30) 8.1 (00:00) 11.1 9.17 (03:50) 4.44 (11:00) 5.4 2 3.4 0 0
07-02-2021 11.6 (14:10) 6.1 (00:00) 8.9 11.11 (01:10) 4.44 (01:10) 11 5.4 5 0.2 0.4
06-02-2021 10.9 (13:20) 7 (00:00) 8.9 16.11 (16:40) 6.94 (14:50) 32.2 0 6.6 23.2 2.4
05-02-2021 12 (11:50) 10.6 (00:00) 11.3 6.39 (00:30) 3.89 (00:30) 0.8 0 0.8 0 0
04-02-2021 -- (--) -- (--) -- -- (--) -- (--) -- 0 -- 0 0
03-02-2021 17.7 (11:20) 12.3 (00:00) 15 15.28 (00:50) 5 (01:50) 0 0 0 0 0
02-02-2021 21.8 (13:50) 11.8 (00:00) 16.8 9.44 (20:30) 4.17 (23:59) 0 0 0 0 0
01-02-2021 13.6 (00:20) 11.7 (00:00) 12.7 22.5 (01:00) 11.39 (01:00) 1.6 0 0 0 1.6
31-01-2021 13.5 (17:10) 9.5 (00:00) 11.5 22.5 (04:30) 8.89 (03:10) 8.2 0.2 5.2 2.2 0.6
30-01-2021 17.6 (01:10) 9.6 (00:00) 13.6 15.83 (13:50) 6.94 (17:20) 20.8 4.2 14.8 0.2 1.6

Gráficas

Temp. máximas Temp. mínimas Temp. medias Precipitaciones Rachas de viento máximas Velocidades máximas media en intervalos de 10 minutos

Datos horarios

Fecha y hora oficial Temperatura (ºC) Velocidad del viento (km/h) Dirección del viento Racha (km/h) Dirección de racha Precipitación (mm) Presión (hPa) Tendencia (hPa) Humedad (%)
2021-02-28 23:00:00 9.5 0 Calma 0 Calma 0 -- -- 82
2021-02-28 22:00:00 10 0 Calma 8 Oeste 0 -- -- 80
2021-02-28 21:00:00 10.2 6 Oeste 8 Oeste 0 -- -- 82
2021-02-28 20:00:00 11.1 0 Calma 15 Este 0.2 -- -- 78
2021-02-28 19:00:00 11.1 5 Este 13 Sudeste 0 -- -- 77
2021-02-28 18:00:00 12.3 6 Este 12 Este 0 -- -- 74
2021-02-28 17:00:00 12.9 3 Nordeste 12 Nordeste 0 -- -- 77
2021-02-28 16:00:00 12 3 Nordeste 6 Nordeste 0 -- -- 81
2021-02-28 15:00:00 11.1 0 Calma 10 Norte 0 -- -- 79
2021-02-28 14:00:00 11.9 5 Nordeste 15 Norte 0 -- -- 76
2021-02-28 13:00:00 12.2 7 Norte 16 Norte 0 -- -- 75
2021-02-28 12:00:00 11.9 5 Este 12 Nordeste 0 -- -- 73
2021-02-28 11:00:00 9.5 3 Norte 6 Norte 0 -- -- 80
2021-02-28 10:00:00 8.5 0 Calma 4 Noroeste 0 -- -- 85
2021-02-28 09:00:00 7.9 0 Calma 5 Oeste 0 -- -- 86
2021-02-28 08:00:00 6.9 2 Oeste 6 Oeste 0 -- -- 86
2021-02-28 07:00:00 6.5 4 Oeste 6 Norte 0 -- -- 88
2021-02-28 06:00:00 7.3 3 Sur 14 Sudoeste 0 -- -- 83
2021-02-28 05:00:00 6.8 7 Noroeste 10 Noroeste 0 -- -- 86
2021-02-28 04:00:00 7.4 0 Calma 10 Sudoeste 0 -- -- 84
2021-02-28 03:00:00 8.3 7 Sudoeste 16 Sudoeste 0 -- -- 83
2021-02-28 02:00:00 8.1 3 Sudoeste 14 Sudoeste 0 -- -- 85
2021-02-28 01:00:00 8.4 8 Sudoeste 17 Oeste 0 -- -- 83
2021-02-28 00:00:00 9 7 Sudoeste 18 Sudoeste 0 -- -- 80
2021-02-27 23:00:00 9 11 Sudoeste 20 Sudoeste 0 -- -- 79
2021-02-27 22:00:00 8.7 10 Sudoeste 19 Sudoeste 0 -- -- 77
2021-02-27 21:00:00 8.7 10 Sudoeste 17 Sudoeste 0 -- -- 77
2021-02-27 20:00:00 8.6 8 Sudoeste 13 Oeste 0 -- -- 78
2021-02-27 19:00:00 8.5 4 Oeste 15 Oeste 0 -- -- 79
2021-02-27 18:00:00 9.8 6 Oeste 20 Oeste 0 -- -- 73
2021-02-27 17:00:00 11.2 8 Oeste 24 Noroeste 0 -- -- 67
2021-02-27 16:00:00 11.5 7 Oeste 18 Norte 0 -- -- 70
2021-02-27 15:00:00 10.8 8 Norte 21 Norte 0 -- -- 75
2021-02-27 14:00:00 12.6 5 Norte 15 Norte 0 -- -- 74
2021-02-27 13:00:00 12 7 Nordeste 18 Norte 0 -- -- 75
2021-02-27 12:00:00 11.4 6 Norte 12 Norte 0 -- -- 81
2021-02-27 11:00:00 10.1 2 Sur 8 Nordeste 0 -- -- 88
2021-02-27 10:00:00 9.4 5 Nordeste 15 Nordeste 0 -- -- 89
2021-02-27 09:00:00 9.9 7 Nordeste 15 Norte 0 -- -- 92
2021-02-27 08:00:00 10.2 5 Nordeste 12 Nordeste 0 -- -- 92
2021-02-27 07:00:00 10.4 0 Calma 0 Calma 0 -- -- 92
2021-02-27 06:00:00 10.6 0 Calma -- -- 0 -- -- 91
2021-02-27 05:00:00 10.7 0 Calma -- -- 0 -- -- 90
2021-02-27 04:00:00 10.7 0 Calma -- -- 0 -- -- 89
2021-02-27 03:00:00 10.7 0 Calma -- -- 0 -- -- 89
2021-02-27 02:00:00 10.7 0 Calma -- -- 0 -- -- 88
2021-02-27 01:00:00 10.7 0 Calma -- -- 0 -- -- 89
2021-02-27 00:00:00 10.7 0 Calma -- -- 0 -- -- 88
2021-02-26 23:00:00 10.7 0 Calma -- -- 0 -- -- 88
2021-02-26 22:00:00 10.8 0 Calma -- -- 0 -- -- 87
2021-02-26 21:00:00 10.9 0 Calma 5 Este 0 -- -- 87
2021-02-26 20:00:00 11 2 Este 6 Este 0 -- -- 86
2021-02-26 19:00:00 11.4 2 Este 8 Norte 0 -- -- 85
2021-02-26 18:00:00 11.7 3 Este 9 Norte 0 -- -- 84
2021-02-26 17:00:00 12.1 5 Norte 14 Nordeste 0 -- -- 83
2021-02-26 16:00:00 12.6 5 Nordeste 15 Nordeste 0 -- -- 81
2021-02-26 15:00:00 12.9 6 Nordeste 13 Norte 0 -- -- 78
2021-02-26 14:00:00 13.5 5 Norte 12 Norte 0 -- -- 80
2021-02-26 13:00:00 12.8 0 Calma 9 Norte 0 -- -- 82
2021-02-26 12:00:00 12.3 4 Norte 8 Nordeste 0 -- -- 85
2021-02-26 11:00:00 12.1 0 Calma 9 Nordeste 0 -- -- 89
2021-02-26 10:00:00 11.2 3 Nordeste 7 Nordeste 0 -- -- 95
2021-02-26 09:00:00 11.2 0 Calma 4 Este 0 -- -- 96
2021-02-26 08:00:00 10.9 0 Calma 4 Nordeste 0 -- -- 95
2021-02-26 07:00:00 10.9 0 Calma 0 Calma 0.2 -- -- 95
2021-02-26 06:00:00 11 0 Calma 6 Sudeste 0.4 -- -- 95
2021-02-26 05:00:00 11.3 4 Nordeste 11 Nordeste 0 -- -- 94
2021-02-26 04:00:00 11.7 0 Calma -- -- 0 -- -- 92
2021-02-26 03:00:00 11.7 0 Calma -- -- 0 -- -- 91
2021-02-26 02:00:00 11.8 0 Calma 8 Sudoeste 0 -- -- 89
2021-02-26 01:00:00 12 0 Calma 13 Oeste 0 -- -- 88
2021-02-26 00:00:00 12.1 5 Oeste 9 Oeste 0 -- -- 86
2021-02-25 23:00:00 12.3 0 Calma 5 Norte 0 -- -- 85
2021-02-25 22:00:00 12.3 0 Calma 7 Oeste 0 -- -- 84
2021-02-25 21:00:00 12.4 0 Calma -- -- 0 -- -- 82
2021-02-25 20:00:00 12.5 0 Calma 4 Sudeste 0 -- -- 82
2021-02-25 19:00:00 12.6 0 Calma 3 Sudoeste 0 -- -- 83
2021-02-25 18:00:00 12.7 3 Noroeste 9 Norte 0 -- -- 83
2021-02-25 17:00:00 13.4 5 Nordeste 15 Nordeste 0 -- -- 83
2021-02-25 16:00:00 15.1 6 Este 14 Nordeste 0 -- -- 76
2021-02-25 15:00:00 17 5 Este 13 Este 0 -- -- 67
2021-02-25 14:00:00 17.1 5 Norte 14 Norte 0 -- -- 66
2021-02-25 13:00:00 16.6 6 Norte 18 Norte 0 -- -- 65
2021-02-25 12:00:00 18 5 Nordeste 12 Norte 0 -- -- 43
2021-02-25 11:00:00 16.8 2 Sudoeste 10 Este 0 -- -- 46
2021-02-25 10:00:00 15.2 5 Nordeste 12 Norte 0 -- -- 52
2021-02-25 09:00:00 14.6 6 Noroeste 19 Sur 0 -- -- 51
2021-02-25 08:00:00 15 5 Sur 25 Sudoeste 0 -- -- 47
2021-02-25 07:00:00 15.7 12 Sudoeste 23 Sudoeste 0 -- -- 46
2021-02-25 06:00:00 15.4 4 Norte 26 Sur 0 -- -- 49
2021-02-25 05:00:00 16.5 10 Sudeste 37 Sur 0 -- -- 45
2021-02-25 04:00:00 16.6 9 Sur 35 Sudeste 0 -- -- 45
2021-02-25 03:00:00 16.8 6 Sur 29 Sudeste 0 -- -- 46
2021-02-25 02:00:00 17.5 13 Sur 33 Sudeste 0 -- -- 41
2021-02-25 01:00:00 18.5 16 Sur 50 Sudeste 0 -- -- 45
2021-02-25 00:00:00 18.4 13 Sudeste 57 Sudeste 0 -- -- 35
2021-02-24 23:00:00 18.5 21 Sudeste 57 Sudeste 0 -- -- 37
2021-02-24 22:00:00 18.5 28 Sudeste 56 Sudeste 0 -- -- 44
2021-02-24 21:00:00 18.4 7 Sudeste 46 Sur 0 -- -- 45
2021-02-24 20:00:00 19.2 16 Sudeste 35 Sudeste 0 -- -- 44
2021-02-24 19:00:00 20 16 Sur 40 Sur 0 -- -- 41
2021-02-24 18:00:00 20.7 19 Sudeste 43 Sur 0 -- -- 39
2021-02-24 17:00:00 21.5 15 Sur 46 Sudeste 0 -- -- 36
2021-02-24 16:00:00 21.9 13 Sur 36 Sur 0 -- -- 37
2021-02-24 15:00:00 21.9 10 Sur 36 Sur 0 -- -- 37
2021-02-24 14:00:00 21.6 13 Sur 41 Sur 0 -- -- 39
2021-02-24 13:00:00 21.3 8 Sudeste 32 Sudeste 0 -- -- 43
2021-02-24 12:00:00 20.3 6 Norte 15 Norte 0 -- -- 44
2021-02-24 11:00:00 18.1 9 Oeste 27 Sudoeste 0 -- -- 51
2021-02-24 10:00:00 17 9 Sudoeste 36 Sur 0 -- -- 51
2021-02-24 09:00:00 16.2 13 Sudoeste 30 Sudoeste 0 -- -- 54
2021-02-24 08:00:00 16.5 10 Sudoeste 22 Noroeste 0 -- -- 54
2021-02-24 07:00:00 16.5 6 Sur 17 Sudoeste 0 -- -- 55
2021-02-24 06:00:00 16.5 5 Oeste 30 Sur 0 -- -- 55
2021-02-24 05:00:00 16.4 6 Sudoeste 26 Sur 0 -- -- 56
2021-02-24 04:00:00 16.7 10 Sudeste 46 Oeste 0 -- -- 55
2021-02-24 03:00:00 16.8 13 Sudeste 52 Sudeste 0 -- -- 54
2021-02-24 02:00:00 16.6 19 Sudeste 60 Sur 0 -- -- 51
2021-02-24 01:00:00 16.4 24 Sudeste 56 Sudeste 0 -- -- 52
2021-02-24 00:00:00 16.1 11 Sur 37 Sudeste 0 -- -- 50
2021-02-23 23:00:00 16 15 Sur 44 Sur 0 -- -- 51
2021-02-23 22:00:00 16.5 15 Sur 42 Sudeste 0 -- -- 49
2021-02-23 21:00:00 16.6 17 Sur 37 Sudoeste 0 -- -- 48
2021-02-23 20:00:00 16.3 12 Sur 32 Sudeste 0 -- -- 49
2021-02-23 19:00:00 16.3 8 Oeste 26 Sur 0 -- -- 48
2021-02-23 18:00:00 17.4 10 Sudeste 31 Sudeste 0 -- -- 45
2021-02-23 17:00:00 18.3 6 Sudeste 45 Sur 0 -- -- 44
2021-02-23 16:00:00 18.7 22 Sur 48 Sudoeste 0 -- -- 42
2021-02-23 15:00:00 19 11 Sur 38 Sur 0 -- -- 43
2021-02-23 14:00:00 18.8 10 Sur 32 Sudoeste 0 -- -- 45
2021-02-23 13:00:00 18.7 12 Sudeste 37 Sudeste 0 -- -- 48
2021-02-23 12:00:00 16.7 21 Sudeste 57 Sudeste 0 -- -- 53
2021-02-23 11:00:00 15.5 14 Sudeste 50 Sur 0 -- -- 55
2021-02-23 10:00:00 13.9 5 Norte 35 Sudeste 0 -- -- 67
2021-02-23 09:00:00 12.2 4 Nordeste 31 Sudeste 0 -- -- 68
2021-02-23 08:00:00 12.1 10 Sudeste 40 Sur 0 -- -- 65
2021-02-23 07:00:00 10.9 15 Sur 36 Sur 0 -- -- 72
2021-02-23 06:00:00 8.2 3 Oeste 15 Noroeste 0 -- -- 87
2021-02-23 05:00:00 7.4 3 Oeste 9 Oeste 0 -- -- 88
2021-02-23 04:00:00 7.2 3 Sudeste 10 Oeste 0 -- -- 92
2021-02-23 03:00:00 7.6 3 Sudeste 13 Oeste 0 -- -- 90
2021-02-23 02:00:00 8.1 6 Sudoeste 12 Sudoeste 0 -- -- 90
2021-02-23 01:00:00 7.9 4 Sudoeste 13 Sudeste 0 -- -- 92
2021-02-23 00:00:00 7.6 4 Sudoeste 9 Noroeste 0 -- -- 94
2021-02-22 23:00:00 8.3 2 Este 8 Oeste 0 -- -- 92
2021-02-22 22:00:00 8.9 0 Calma 6 Oeste 0 -- -- 91
2021-02-22 21:00:00 9.4 0 Calma 9 Sur 0 -- -- 90
2021-02-22 20:00:00 9.6 7 Sur 17 Sudoeste 0 -- -- 88
2021-02-22 19:00:00 9.4 10 Sudoeste 17 Sudoeste 0 -- -- 92
2021-02-22 18:00:00 10 4 Sudoeste 15 Sudoeste 0.2 -- -- 89
2021-02-22 17:00:00 10.9 8 Oeste 15 Oeste 0 -- -- 84
2021-02-22 16:00:00 10.5 5 Sur 14 Noroeste 0 -- -- 88
2021-02-22 15:00:00 11.2 6 Oeste 15 Oeste 0 -- -- 81
2021-02-22 14:00:00 10 7 Oeste 30 Oeste 0.4 -- -- 92
2021-02-22 13:00:00 9.4 11 Sudoeste 31 Oeste 0.8 -- -- 93
2021-02-22 12:00:00 8.9 10 Sudoeste 33 Sudoeste 1.2 -- -- 93
2021-02-22 11:00:00 8.6 13 Sudoeste 27 Sudoeste 2.2 -- -- 93
2021-02-22 10:00:00 8.3 14 Sudoeste 30 Oeste 3.6 -- -- 94
2021-02-22 09:00:00 8.1 14 Sudoeste 32 Oeste 4.8 -- -- 95
2021-02-22 08:00:00 8.3 12 Sudoeste 32 Oeste 4.8 -- -- 95
2021-02-22 07:00:00 8.1 13 Sudoeste 32 Oeste 2 -- -- 94
2021-02-22 06:00:00 7.9 16 Sudoeste 32 Sudoeste 2.6 -- -- 94
2021-02-22 05:00:00 7.9 14 Sudoeste 29 Sudoeste 1.8 -- -- 94
2021-02-22 04:00:00 8 14 Sudoeste 27 Sudoeste 2.4 -- -- 94
2021-02-22 03:00:00 8.1 13 Sudoeste 28 Oeste 3.6 -- -- 93
2021-02-22 02:00:00 8.6 12 Sudoeste 27 Sudoeste 2.6 -- -- 94
2021-02-22 01:00:00 8.7 12 Sudoeste 26 Oeste 1.8 -- -- 94
2021-02-22 00:00:00 9.4 10 Oeste 30 Oeste 2.2 -- -- 93
2021-02-21 23:00:00 10.4 8 Sudoeste 17 Sudoeste 0.2 -- -- 92
2021-02-21 22:00:00 11.2 4 Oeste 22 Oeste 0 -- -- 90
2021-02-21 21:00:00 12.1 7 Noroeste 23 Sudoeste 0 -- -- 84
2021-02-21 20:00:00 17 3 Nordeste 22 Sudeste 0 -- -- 48
2021-02-21 19:00:00 17.2 6 Sur 30 Sudeste 0 -- -- 47
2021-02-21 18:00:00 17.3 13 Sur 35 Sudoeste 0 -- -- 47
2021-02-21 17:00:00 17.7 13 Sur 34 Sudeste 0 -- -- 45
2021-02-21 16:00:00 19.2 13 Sudeste 35 Sudeste 0 -- -- 41
2021-02-21 15:00:00 19.3 15 Sudeste 45 Sur 0 -- -- 38
2021-02-21 14:00:00 19.5 15 Sur 37 Sur 0 -- -- 32
2021-02-21 13:00:00 20.9 16 Sudeste 36 Sudeste 0 -- -- 30
2021-02-21 12:00:00 20.6 19 Sudeste 58 Sudeste 0 -- -- 30
2021-02-21 11:00:00 19.6 35 Sudeste 72 Sur 0 -- -- 28
2021-02-21 10:00:00 18.7 37 Sudeste 78 Sudeste 0 -- -- 28
2021-02-21 09:00:00 17.7 36 Sudeste 66 Sudeste 0 -- -- 31
2021-02-21 08:00:00 17 36 Sudeste 77 Sudeste 0 -- -- 33
2021-02-21 07:00:00 17.1 44 Sudeste 85 Sudeste 0 -- -- 33
2021-02-21 06:00:00 17.2 23 Sudeste 50 Sudeste 0 -- -- 33
2021-02-21 05:00:00 17.8 19 Sudeste 59 Sur 0 -- -- 32
2021-02-21 04:00:00 18.2 23 Sudeste 58 Sudeste 0 -- -- 31
2021-02-21 03:00:00 18.5 21 Sudeste 56 Sudeste 0 -- -- 31
2021-02-21 02:00:00 18.5 22 Sudeste 53 Sudeste 0 -- -- 32
2021-02-21 01:00:00 18.9 17 Sudeste 35 Sur 0 -- -- 32
2021-02-21 00:00:00 19.6 14 Sudeste 48 Sudeste 0 -- -- 32
2021-02-20 23:00:00 19.8 15 Sudeste 47 Sur 0 -- -- 31
2021-02-20 22:00:00 20.4 9 Sudeste 33 Sudeste 0 -- -- 30
2021-02-20 21:00:00 21.3 11 Sudeste 62 Sur 0 -- -- 29
2021-02-20 20:00:00 21.8 20 Sur 53 Sur 0 -- -- 28
2021-02-20 19:00:00 22.4 17 Sudeste 48 Sur 0 -- -- 26
2021-02-20 18:00:00 23 23 Sur 60 Sur 0 -- -- 25
2021-02-20 17:00:00 23.5 10 Sur 50 Sur 0 -- -- 26
2021-02-20 16:00:00 23.5 25 Sur 62 Sudoeste 0 -- -- 25
2021-02-20 15:00:00 22.8 25 Sudeste 64 Sur 0 -- -- 25
2021-02-20 14:00:00 23 32 Sur 83 Sur 0 -- -- 25
2021-02-20 13:00:00 22.4 36 Sudeste 92 Sudeste 0 -- -- 27
2021-02-20 12:00:00 21 30 Sudeste 76 Sudeste 0 -- -- 30
2021-02-20 11:00:00 20.5 39 Sudeste 96 Sudeste 0 -- -- 30
2021-02-20 10:00:00 20.6 35 Sudeste 97 Este 0 -- -- 29
2021-02-20 09:00:00 20.3 30 Sudeste 73 Sudeste 0 -- -- 28
2021-02-20 08:00:00 19.7 23 Sur 79 Sur 0 -- -- 29
2021-02-20 07:00:00 18.8 12 Sudeste 57 Sur 0 -- -- 31
2021-02-20 06:00:00 19.2 19 Sur 53 Sudeste 0 -- -- 31
2021-02-20 05:00:00 18.9 10 Sur 45 Sur 0 -- -- 32
2021-02-20 04:00:00 19.9 21 Sur 54 Sur 0 -- -- 29
2021-02-20 03:00:00 20.2 21 Sur 53 Sur 0 -- -- 28
2021-02-20 02:00:00 19.8 18 Sur 49 Sudeste 0 -- -- 30
2021-02-20 01:00:00 19.7 10 Sur 36 Sudoeste 0 -- -- 31
2021-02-20 00:00:00 19.8 15 Sur 50 Sur 0 -- -- 30
2021-02-19 23:00:00 19.6 15 Sur 43 Sudeste 0 -- -- 33
2021-02-19 22:00:00 19.3 12 Sudeste 51 Sudoeste 0 -- -- 35
2021-02-19 21:00:00 19.8 16 Sudeste 58 Sudeste 0 -- -- 35
2021-02-19 20:00:00 20.1 17 Sur 44 Sudoeste 0 -- -- 33
2021-02-19 19:00:00 20.3 19 Sur 44 Sudoeste 0 -- -- 34
2021-02-19 18:00:00 20.7 9 Sur 44 Sudoeste 0 -- -- 35
2021-02-19 17:00:00 21.2 13 Sur 41 Sur 0 -- -- 34
2021-02-19 16:00:00 21.3 13 Sudoeste 35 Sur 0 -- -- 33
2021-02-19 15:00:00 21.2 12 Sur 34 Oeste 0 -- -- 34
2021-02-19 14:00:00 20.6 12 Sur 38 Sudeste 0 -- -- 34
2021-02-19 13:00:00 20.8 9 Sudoeste 37 Oeste 0 -- -- 36
2021-02-19 12:00:00 19.9 10 Sur 32 Sur 0 -- -- 37
2021-02-19 11:00:00 18.3 10 Sur 37 Sur 0 -- -- 39
2021-02-19 10:00:00 17 14 Sur 36 Sur 0 -- -- 42
2021-02-19 09:00:00 16 12 Sur 33 Sur 0 -- -- 44
2021-02-19 08:00:00 15.9 11 Sur 30 Sur 0 -- -- 45
2021-02-19 07:00:00 15.9 9 Sudoeste 27 Oeste 0 -- -- 46
2021-02-19 06:00:00 14.2 5 Sudoeste 16 Sur 0 -- -- 52
2021-02-19 05:00:00 11.5 0 Calma 11 Sudoeste 0 -- -- 71
2021-02-19 04:00:00 11.5 3 Sudeste 10 Oeste 0 -- -- 73
2021-02-19 03:00:00 11.3 0 Calma 6 Sudoeste 0 -- -- 77
2021-02-19 02:00:00 10.4 2 Sudeste 8 Sudeste 0 -- -- 85
2021-02-19 01:00:00 10.3 0 Calma 8 Oeste 0 -- -- 85
2021-02-19 00:00:00 10 6 Oeste 10 Oeste 0 -- -- 86
2021-02-18 23:00:00 10.7 4 Sudeste 9 Este 0 -- -- 84
2021-02-18 22:00:00 10.7 5 Este 12 Este 0 -- -- 83
2021-02-18 21:00:00 11 0 Calma -- -- 0 -- -- 83
2021-02-18 20:00:00 11.4 0 Calma -- -- 0 -- -- 83
2021-02-18 19:00:00 11.6 0 Calma 7 Sudoeste 0 -- -- 84
2021-02-18 18:00:00 11.9 4 Sur 9 Oeste 0 -- -- 82
2021-02-18 17:00:00 12.2 6 Noroeste 15 Oeste 0 -- -- 80
2021-02-18 16:00:00 13 6 Oeste 17 Oeste 0 -- -- 81
2021-02-18 15:00:00 13.9 8 Oeste 26 Noroeste 0 -- -- 77
2021-02-18 14:00:00 15.3 8 Oeste 26 Oeste 0 -- -- 70
2021-02-18 13:00:00 16.3 7 Norte 36 Noroeste 0 -- -- 67
2021-02-18 12:00:00 18.4 7 Sudoeste 23 Sudoeste 0 -- -- 39
2021-02-18 11:00:00 17.7 8 Sur 44 Sudeste 0 -- -- 39
2021-02-18 10:00:00 17.4 10 Sudoeste 22 Sur 0 -- -- 38
2021-02-18 09:00:00 17.7 11 Sudoeste 33 Oeste 0 -- -- 37
2021-02-18 08:00:00 17.9 8 Sudoeste 42 Sur 0 -- -- 37
2021-02-18 07:00:00 18.3 21 Sur 52 Sur 0 -- -- 37
2021-02-18 06:00:00 18.4 28 Sur 67 Sur 0 -- -- 39
2021-02-18 05:00:00 18.1 16 Sur 55 Sur 0 -- -- 41
2021-02-18 04:00:00 18 13 Sudoeste 36 Sudeste 0 -- -- 43
2021-02-18 03:00:00 18.1 9 Sudoeste 35 Noroeste 0 -- -- 43
2021-02-18 02:00:00 18.4 12 Sudoeste 44 Sur 0 -- -- 44
2021-02-18 01:00:00 18.5 13 Sur 53 Sudoeste 0 -- -- 45
2021-02-18 00:00:00 18.4 18 Sur 50 Sur 0 -- -- 47
2021-02-17 23:00:00 18.5 15 Sur 40 Sur 0 -- -- 48
2021-02-17 22:00:00 17.9 8 Sudoeste 24 Sur 0 -- -- 52
2021-02-17 21:00:00 18.1 7 Sur 22 Sur 0 -- -- 51
2021-02-17 20:00:00 17.6 8 Sudoeste 23 Sur 0 -- -- 53
2021-02-17 19:00:00 16.5 5 Sudeste 11 Sudeste 0 -- -- 57
2021-02-17 18:00:00 17.9 4 Norte 18 Oeste 0 -- -- 54
2021-02-17 17:00:00 18.6 9 Sur 31 Sur 0 -- -- 50
2021-02-17 16:00:00 20 7 Sudoeste 29 Sudoeste 0 -- -- 45
2021-02-17 15:00:00 19.5 5 Oeste 18 Sur 0 -- -- 47
2021-02-17 14:00:00 19.2 9 Sudoeste 24 Sur 0 -- -- 53
2021-02-17 13:00:00 18.2 9 Sur 24 Sudoeste 0 -- -- 51
2021-02-17 12:00:00 18.7 10 Sudoeste 30 Oeste 0 -- -- 50
2021-02-17 11:00:00 16.4 4 Oeste 15 Oeste 0 -- -- 59
2021-02-17 10:00:00 13.4 0 Calma 4 Oeste 0 -- -- 73
2021-02-17 09:00:00 11 2 Sudeste 8 Oeste 0 -- -- 76
2021-02-17 08:00:00 10.2 6 Oeste 10 Oeste 0 -- -- 79
2021-02-17 07:00:00 8.9 0 Calma -- -- 0 -- -- 86
2021-02-17 06:00:00 9.6 0 Calma -- -- 0 -- -- 81
2021-02-17 05:00:00 9.4 0 Calma -- -- 0 -- -- 82
2021-02-17 04:00:00 9.1 0 Calma 5 Oeste 0 -- -- 85
2021-02-17 03:00:00 8.9 4 Oeste 6 Oeste 0 -- -- 89
2021-02-17 02:00:00 8.8 2 Sudoeste 6 Oeste 0 -- -- 92
2021-02-17 01:00:00 9.1 0 Calma 6 Noroeste 0 -- -- 92
2021-02-17 00:00:00 9.5 4 Sudeste 5 Este 0.2 -- -- 90
2021-02-16 23:00:00 9.9 0 Calma 6 Sudeste 0 -- -- 89
2021-02-16 22:00:00 10.1 3 Sudoeste 10 Sudeste 1.2 -- -- 89
2021-02-16 21:00:00 11.7 3 Sudoeste 8 Noroeste 0.6 -- -- 76
2021-02-16 20:00:00 12.5 2 Sudeste 5 Sudoeste 0 -- -- 67
2021-02-16 19:00:00 13.2 3 Sudoeste 9 Sur 0 -- -- 63
2021-02-16 18:00:00 13.1 5 Sudoeste 16 Sudoeste 0 -- -- 66
2021-02-16 17:00:00 12.9 7 Sudoeste 16 Oeste 0 -- -- 70
2021-02-16 16:00:00 13.6 9 Sudoeste 22 Sudoeste 0 -- -- 68
2021-02-16 15:00:00 15.3 6 Oeste 53 Noroeste 0 -- -- 68
2021-02-16 14:00:00 18.5 22 Oeste 49 Sudoeste 0 -- -- 45
2021-02-16 13:00:00 17.4 10 Oeste 35 Sudoeste 0 -- -- 43
2021-02-16 12:00:00 16.9 10 Sur 31 Oeste 0 -- -- 45
2021-02-16 11:00:00 15.9 12 Sudoeste 28 Oeste 0 -- -- 48
2021-02-16 10:00:00 13.7 6 Nordeste 22 Oeste 0 -- -- 58
2021-02-16 09:00:00 14.4 10 Sur 37 Oeste 0 -- -- 51
2021-02-16 08:00:00 13.7 11 Sudeste 24 Sudeste 0 -- -- 57
2021-02-16 07:00:00 14.6 17 Sudoeste 40 Oeste 0 -- -- 51
2021-02-16 06:00:00 16 15 Sudoeste 43 Sur 0 -- -- 44
2021-02-16 05:00:00 15.5 12 Sur 37 Sur 0 -- -- 49
2021-02-16 04:00:00 14.9 16 Sur 32 Sur 0 -- -- 54
2021-02-16 03:00:00 15.1 10 Sudeste 30 Sur 0 -- -- 52
2021-02-16 02:00:00 14.9 13 Sur 35 Sudeste 0 -- -- 53
2021-02-16 01:00:00 14.8 9 Sudoeste 32 Sudoeste 0 -- -- 52
2021-02-16 00:00:00 15.1 8 Sudeste 24 Sudeste 0 -- -- 51
2021-02-15 23:00:00 15.2 7 Norte 31 Sur 0 -- -- 50
2021-02-15 22:00:00 15.3 9 Sur 32 Sudeste 0 -- -- 50
2021-02-15 21:00:00 14.2 4 Noroeste 14 Oeste 0 -- -- 56
2021-02-15 20:00:00 14.2 3 Sur 10 Nordeste 0 -- -- 54
2021-02-15 19:00:00 15.2 3 Sudeste 25 Sudeste 0 -- -- 50
2021-02-15 18:00:00 16.4 15 Sudeste 35 Sur 0 -- -- 51
2021-02-15 17:00:00 18.3 10 Sudeste 26 Sudeste 0 -- -- 46
2021-02-15 16:00:00 19.3 5 Este 16 Sudeste 0 -- -- 48
2021-02-15 15:00:00 18.1 6 Este 22 Sudeste 0 -- -- 47
2021-02-15 14:00:00 17.2 4 Este 15 Noroeste 0 -- -- 48
2021-02-15 13:00:00 17.6 8 Oeste 23 Sudoeste 0 -- -- 43
2021-02-15 12:00:00 17.1 8 Sudeste 21 Sur 0 -- -- 49
2021-02-15 11:00:00 15.2 5 Nordeste 14 Nordeste 0 -- -- 54
2021-02-15 10:00:00 13.3 3 Nordeste 24 Sudeste 0 -- -- 57
2021-02-15 09:00:00 12.6 5 Este 15 Sudeste 0 -- -- 59
2021-02-15 08:00:00 12.8 3 Este 16 Nordeste 0 -- -- 55
2021-02-15 07:00:00 12.4 4 Nordeste 19 Norte 0 -- -- 57
2021-02-15 06:00:00 12.8 9 Norte 20 Noroeste 0 -- -- 56
2021-02-15 05:00:00 12.5 6 Norte 15 Noroeste 0 -- -- 59
2021-02-15 04:00:00 12.2 5 Norte 12 Norte 0 -- -- 60
2021-02-15 03:00:00 12.7 4 Sudeste 18 Este 0 -- -- 59
2021-02-15 02:00:00 13.4 5 Norte 24 Nordeste 0 -- -- 57
2021-02-15 01:00:00 13.1 5 Norte 14 Norte 0 -- -- 59
2021-02-15 00:00:00 13.9 8 Norte 25 Norte 0 -- -- 58
2021-02-14 23:00:00 14.8 8 Nordeste 19 Sudeste 0 -- -- 55
2021-02-14 22:00:00 15.2 9 Este 36 Sur 0 -- -- 53
2021-02-14 21:00:00 15.3 8 Sudeste 30 Sur 0 -- -- 53
2021-02-14 20:00:00 15.5 8 Sudeste 27 Sudoeste 0 -- -- 53
2021-02-14 19:00:00 16.1 8 Sur 30 Oeste 0 -- -- 51
2021-02-14 18:00:00 17 4 Sudoeste 30 Sudoeste 0 -- -- 48
2021-02-14 17:00:00 18.1 9 Sur 33 Sudeste 0 -- -- 47
2021-02-14 16:00:00 19.7 6 Sur 18 Sudeste 0 -- -- 45
2021-02-14 15:00:00 20.3 8 Este 19 Sudoeste 0 -- -- 42
2021-02-14 14:00:00 19.1 3 Sudeste 13 Sudeste 0 -- -- 45
2021-02-14 13:00:00 19.1 5 Sudeste 20 Este 0 -- -- 47
2021-02-14 12:00:00 17.3 6 Sudeste 10 Este 0 -- -- 59
2021-02-14 11:00:00 13.8 3 Este 10 Noroeste 0 -- -- 68
2021-02-14 10:00:00 10.9 0 Calma -- -- 0 -- -- 71
2021-02-14 09:00:00 8.8 0 Calma -- -- 0 -- -- 74
2021-02-14 08:00:00 7.6 0 Calma -- -- 0 -- -- 79
2021-02-14 07:00:00 7.2 0 Calma -- -- 0 -- -- 83
2021-02-14 06:00:00 7.4 0 Calma 4 Sudeste 0 -- -- 84
2021-02-14 05:00:00 7.7 4 Sudeste 5 Sudeste 0 -- -- 84
2021-02-14 04:00:00 8.4 2 Noroeste 6 Oeste 0 -- -- 82
2021-02-14 03:00:00 7.8 6 Oeste 9 Oeste 0 -- -- 87
2021-02-14 02:00:00 8.5 3 Norte 8 Sudeste 0 -- -- 83
2021-02-14 01:00:00 8.2 6 Oeste 9 Oeste 0 -- -- 87
2021-02-14 00:00:00 8.4 4 Sudeste 5 Sur 0 -- -- 95
2021-02-13 23:00:00 8.7 0 Calma 10 Oeste 0 -- -- 96
2021-02-13 22:00:00 8.9 0 Calma -- -- 0 -- -- 95
2021-02-13 21:00:00 9.7 0 Calma -- -- 0 -- -- 95
2021-02-13 20:00:00 10.2 0 Calma -- -- 0 -- -- 93
2021-02-13 19:00:00 10.8 0 Calma 5 Norte 0 -- -- 90
2021-02-13 18:00:00 12.1 0 Calma 8 Norte 0 -- -- 85
2021-02-13 17:00:00 13.1 5 Norte 12 Norte 0 -- -- 76
2021-02-13 16:00:00 13.4 0 Calma 9 Norte 0 -- -- 76
2021-02-13 15:00:00 13.3 4 Norte 9 Norte 0 -- -- 76
2021-02-13 14:00:00 13.6 4 Norte 10 Norte 0 -- -- 75
2021-02-13 13:00:00 13.9 2 Noroeste 8 Noroeste 0 -- -- 73
2021-02-13 08:00:00 -- -- -- -- -- -- -- -- --
2021-02-13 07:00:00 10 0 Calma 12 Sur 0 -- -- 94
2021-02-13 06:00:00 10.1 8 Sur 13 Sur 0 -- -- 96
2021-02-13 05:00:00 10.3 4 Sudoeste 13 Sudoeste 0 -- -- 98
2021-02-13 04:00:00 10.2 6 Sudoeste 16 Oeste 0.2 -- -- 99
2021-02-13 03:00:00 10.3 6 Oeste 15 Sudoeste 0.4 -- -- 98
2021-02-13 02:00:00 10.3 0 Calma -- -- 0 -- -- 98
2021-02-13 01:00:00 10.4 0 Calma 5 Sudeste 0 -- -- 98
2021-02-13 00:00:00 10.5 0 Calma 13 Norte 0.2 -- -- 98
2021-02-12 23:00:00 10.8 3 Norte 15 Noroeste 0.2 -- -- 98
2021-02-12 22:00:00 10.8 8 Noroeste 22 Noroeste 7 -- -- 98
2021-02-12 21:00:00 11 10 Noroeste 35 Noroeste 5.6 -- -- 97
2021-02-12 20:00:00 11.3 16 Noroeste 35 Noroeste 5.2 -- -- 97
2021-02-12 19:00:00 11.4 19 Noroeste 39 Noroeste 0.6 -- -- 96
2021-02-12 18:00:00 11.3 18 Noroeste 40 Noroeste 0 -- -- 95
2021-02-12 17:00:00 11.6 19 Noroeste 53 Noroeste 0.2 -- -- 93
2021-02-12 16:00:00 11.8 13 Oeste 49 Sudoeste 0 -- -- 94
2021-02-12 15:00:00 11.8 22 Oeste 50 Oeste 1.2 -- -- 96
2021-02-12 14:00:00 11.7 16 Oeste 56 Oeste 0.6 -- -- 95
2021-02-12 13:00:00 11.5 20 Oeste 48 Oeste 1 -- -- 96
2021-02-12 12:00:00 11.8 19 Oeste 56 Oeste 2.4 -- -- 95
2021-02-12 11:00:00 12.7 10 Oeste 21 Oeste 0.4 -- -- 93
2021-02-12 10:00:00 11.7 11 Sudoeste 23 Sudoeste 0.2 -- -- 95
2021-02-12 09:00:00 11.5 6 Sudoeste 17 Oeste 1.6 -- -- 95
2021-02-12 08:00:00 11.8 8 Sudoeste 48 Oeste 1 -- -- 93
2021-02-12 07:00:00 13.4 13 Oeste 35 Oeste 0.6 -- -- 86
2021-02-12 06:00:00 16.5 11 Sudoeste 24 Oeste 0 -- -- 63
2021-02-12 05:00:00 15.7 6 Sudeste 25 Sur 0 -- -- 65
2021-02-12 04:00:00 16.7 10 Sudeste 31 Sudeste 0 -- -- 62
2021-02-12 03:00:00 16.7 8 Sudoeste 28 Sudeste 0 -- -- 61
2021-02-12 02:00:00 15.3 3 Sudeste 6 Este 0 -- -- 66
2021-02-12 01:00:00 15 3 Noroeste 12 Norte 0 -- -- 67
2021-02-12 00:00:00 14.9 2 Sur 6 Sur 0 -- -- 67
2021-02-11 23:00:00 14.6 4 Nordeste 9 Sudoeste 0 -- -- 69
2021-02-11 22:00:00 14.4 3 Noroeste 5 Norte 0 -- -- 71
2021-02-11 21:00:00 13.5 0 Calma 10 Oeste 0 -- -- 77
2021-02-11 20:00:00 13.8 2 Este 6 Noroeste 0 -- -- 77
2021-02-11 19:00:00 13.6 0 Calma 6 Oeste 0 -- -- 76
2021-02-11 18:00:00 13.8 7 Oeste 11 Oeste 0 -- -- 76
2021-02-11 17:00:00 15.5 9 Norte 17 Norte 0 -- -- 71
2021-02-11 16:00:00 17.8 5 Norte 12 Oeste 0 -- -- 63
2021-02-11 15:00:00 19.5 9 Oeste 21 Sudoeste 0 -- -- 54
2021-02-11 14:00:00 17.9 3 Oeste 8 Norte 0 -- -- 62
2021-02-11 13:00:00 15.9 2 Este 5 Sudeste 0 -- -- 65
2021-02-11 12:00:00 14.6 0 Calma 6 Oeste 0 -- -- 68
2021-02-11 11:00:00 12.8 0 Calma -- -- 0 -- -- 73
2021-02-11 10:00:00 10 0 Calma -- -- 0 -- -- 78
2021-02-11 09:00:00 8.2 0 Calma -- -- 0 -- -- 84
2021-02-11 08:00:00 7.9 0 Calma 4 Oeste 0 -- -- 82
2021-02-11 07:00:00 7.9 0 Calma 10 Oeste 0 -- -- 82
2021-02-11 06:00:00 7.2 6 Oeste 10 Oeste 0 -- -- 85
2021-02-11 05:00:00 7.6 0 Calma 4 Sudeste 0 -- -- 85
2021-02-11 04:00:00 8.1 0 Calma 5 Oeste 0 -- -- 83
2021-02-11 03:00:00 8.6 4 Oeste 6 Oeste 0 -- -- 82
2021-02-11 02:00:00 9 3 Oeste 9 Sudoeste 0 -- -- 81
2021-02-11 01:00:00 9.7 3 Sudoeste 17 Oeste 0 -- -- 77
2021-02-11 00:00:00 10.5 7 Sudoeste 16 Sudoeste 0 -- -- 75
2021-02-10 23:00:00 10.4 9 Sudoeste 18 Sur 0 -- -- 76
2021-02-10 22:00:00 10.6 9 Sudoeste 18 Oeste 0 -- -- 78
2021-02-10 21:00:00 10.2 5 Sudoeste 22 Sudoeste 0 -- -- 82
2021-02-10 20:00:00 10.1 7 Oeste 23 Oeste 0 -- -- 85
2021-02-10 19:00:00 9.9 9 Oeste 24 Oeste 0 -- -- 87
2021-02-10 18:00:00 9.3 5 Oeste 51 Oeste 0 -- -- 91
2021-02-10 17:00:00 9.6 15 Oeste 43 Oeste 0.2 -- -- 90
2021-02-10 16:00:00 9.6 13 Sudoeste 32 Oeste 0.4 -- -- 92
2021-02-10 15:00:00 9.1 14 Oeste 37 Sudoeste 2.4 -- -- 93
2021-02-10 14:00:00 9.1 12 Oeste 32 Oeste 1.2 -- -- 89
2021-02-10 13:00:00 8.9 14 Oeste 34 Oeste 1 -- -- 85
2021-02-10 12:00:00 9.1 9 Oeste 30 Sudoeste 0.6 -- -- 83
2021-02-10 11:00:00 10 13 Sudoeste 30 Sudoeste 0 -- -- 77
2021-02-10 10:00:00 8.4 11 Sudoeste 24 Sudoeste 0.2 -- -- 88
2021-02-10 09:00:00 8.5 12 Oeste 24 Oeste 0.6 -- -- 84
2021-02-10 08:00:00 9.3 10 Sudoeste 15 Sudoeste 0 -- -- 80
2021-02-10 07:00:00 9.4 4 Sur 5 Sudoeste 0 -- -- 80
2021-02-10 06:00:00 9.3 2 Oeste 11 Norte 0 -- -- 75
2021-02-10 05:00:00 9.6 5 Noroeste 18 Sudoeste 0 -- -- 64
2021-02-10 04:00:00 9.4 9 Oeste 17 Sudoeste 0 -- -- 63
2021-02-10 03:00:00 10.2 8 Sudoeste 26 Oeste 0 -- -- 59
2021-02-10 02:00:00 10.1 5 Sudoeste 18 Sudoeste 0 -- -- 62
2021-02-10 01:00:00 10.5 6 Sudoeste 20 Sudoeste 0 -- -- 64
2021-02-10 00:00:00 10 6 Sudoeste 15 Sudoeste 0.2 -- -- 68
2021-02-09 23:00:00 10.8 6 Sudoeste 15 Sudoeste 0 -- -- 57
2021-02-09 22:00:00 10.6 0 Calma 11 Oeste 0 -- -- 56
2021-02-09 21:00:00 10.9 6 Sudoeste 21 Oeste 0 -- -- 56
2021-02-09 20:00:00 11.2 9 Sudoeste 25 Sudoeste 0 -- -- 55
2021-02-09 19:00:00 11.5 9 Oeste 28 Sudoeste 0 -- -- 57
2021-02-09 18:00:00 12.7 13 Sudoeste 28 Sudoeste 0 -- -- 56
2021-02-09 17:00:00 12.5 15 Sudoeste 36 Sudeste 0 -- -- 65
2021-02-09 16:00:00 11.4 12 Sur 33 Oeste 0.6 -- -- 78
2021-02-09 15:00:00 13.3 13 Sudoeste 33 Sudoeste 0 -- -- 63
2021-02-09 14:00:00 13.7 9 Sudoeste 30 Sur 0 -- -- 59
2021-02-09 13:00:00 13.9 9 Sur 37 Sudeste 0 -- -- 55
2021-02-09 12:00:00 13.2 12 Sur 36 Sur 0 -- -- 55
2021-02-09 11:00:00 13.3 11 Sur 37 Sudoeste 0 -- -- 56
2021-02-09 10:00:00 13.1 13 Sudoeste 51 Sudoeste 0.2 -- -- 57
2021-02-09 09:00:00 12 8 Sudeste 28 Sur 0 -- -- 63
2021-02-09 08:00:00 11.8 8 Sur 23 Sudeste 0 -- -- 63
2021-02-09 07:00:00 12.1 10 Sudoeste 27 Sudoeste 0 -- -- 61
2021-02-09 06:00:00 11.6 4 Sudoeste 29 Oeste 0 -- -- 63
2021-02-09 05:00:00 11.3 6 Oeste 19 Oeste 0 -- -- 65
2021-02-09 04:00:00 11.1 11 Oeste 22 Oeste 0 -- -- 65
2021-02-09 03:00:00 10.6 8 Oeste 20 Sudoeste 0 -- -- 70
2021-02-09 02:00:00 9.7 9 Sudoeste 18 Sudoeste 0 -- -- 79
2021-02-09 01:00:00 10.5 10 Sudoeste 19 Oeste 0 -- -- 75
2021-02-09 00:00:00 10.6 9 Sudoeste 24 Oeste 0 -- -- 78
2021-02-08 23:00:00 10.1 13 Sudoeste 32 Sudoeste 0 -- -- 81
2021-02-08 22:00:00 9.9 14 Sudoeste 33 Sudoeste 0 -- -- 86
2021-02-08 21:00:00 10.8 11 Sudoeste 28 Oeste 0 -- -- 81
2021-02-08 20:00:00 10.9 7 Oeste 27 Oeste 0 -- -- 82
2021-02-08 19:00:00 11 7 Oeste 21 Oeste 0 -- -- 82
2021-02-08 18:00:00 11.5 5 Oeste 27 Oeste 0 -- -- 79
2021-02-08 17:00:00 12.1 6 Oeste 18 Oeste 0 -- -- 75
2021-02-08 16:00:00 12.7 7 Oeste 27 Noroeste 0 -- -- 69
2021-02-08 15:00:00 13.7 8 Oeste 21 Sudoeste 0 -- -- 71
2021-02-08 14:00:00 13.2 10 Sudoeste 25 Oeste 0 -- -- 68
2021-02-08 13:00:00 12.8 11 Sudoeste 23 Sudoeste 0 -- -- 73
2021-02-08 12:00:00 10.2 12 Sudoeste 26 Sudoeste 0.6 -- -- 84
2021-02-08 11:00:00 9.9 16 Sudoeste 27 Sudoeste 1 -- -- 85
2021-02-08 10:00:00 9.7 9 Oeste 20 Sudoeste 1.4 -- -- 89
2021-02-08 09:00:00 10.5 10 Sudoeste 22 Sudoeste 0.4 -- -- 82
2021-02-08 08:00:00 10.9 8 Oeste 19 Sudoeste 0 -- -- 75
2021-02-08 07:00:00 10.4 8 Oeste 22 Sudoeste 0 -- -- 79
2021-02-08 06:00:00 10.4 8 Oeste 28 Sudoeste 0.8 -- -- 80
2021-02-08 05:00:00 10.8 10 Oeste 27 Sudoeste 0.6 -- -- 78
2021-02-08 04:00:00 10.8 10 Sudoeste 33 Sudoeste 0.4 -- -- 76
2021-02-08 03:00:00 9.8 3 Sudeste 12 Sur 0 -- -- 79
2021-02-08 02:00:00 9.6 4 Sur 17 Oeste 0.2 -- -- 81
2021-02-08 01:00:00 8.3 0 Calma 9 Oeste 0 -- -- 86
2021-02-08 00:00:00 8.1 5 Oeste 9 Sudoeste 0 -- -- 88
2021-02-07 23:00:00 7.7 5 Oeste 10 Sudoeste 0.4 -- -- 88
2021-02-07 22:00:00 7.8 2 Sur 9 Oeste 0 -- -- 84
2021-02-07 21:00:00 7.8 0 Calma 4 Sudeste 0 -- -- 81
2021-02-07 20:00:00 8.2 0 Calma 9 Sudoeste 0 -- -- 82
2021-02-07 19:00:00 8.6 8 Sudoeste 12 Sudoeste 0 -- -- 80
2021-02-07 18:00:00 9.6 3 Noroeste 11 Norte 0 -- -- 74
2021-02-07 17:00:00 10.5 4 Norte 11 Sudoeste 0 -- -- 72
2021-02-07 16:00:00 10.6 7 Sudoeste 15 Oeste 0 -- -- 65
2021-02-07 15:00:00 10.6 6 Oeste 22 Oeste 0 -- -- 72
2021-02-07 14:00:00 11.2 8 Oeste 26 Sudoeste 0 -- -- 73
2021-02-07 13:00:00 9.9 11 Oeste 26 Sudoeste 0.2 -- -- 83
2021-02-07 12:00:00 7.1 10 Sudoeste 23 Oeste 1.2 -- -- 91
2021-02-07 11:00:00 7.2 13 Sudoeste 25 Oeste 0.4 -- -- 89
2021-02-07 10:00:00 6.8 11 Sudoeste 27 Oeste 0.4 -- -- 89
2021-02-07 09:00:00 6.8 14 Sudoeste 27 Sudoeste 0 -- -- 87
2021-02-07 08:00:00 6.5 12 Sudoeste 24 Sudoeste 1.4 -- -- 90
2021-02-07 07:00:00 6.4 11 Sudoeste 24 Sudoeste 1.6 -- -- 91
2021-02-07 06:00:00 6.3 10 Sudoeste 28 Oeste 1.6 -- -- 91
2021-02-07 05:00:00 6.3 10 Sudoeste 23 Oeste 0.8 -- -- 92
2021-02-07 04:00:00 6.6 12 Sudoeste 24 Oeste 0.6 -- -- 91
2021-02-07 03:00:00 6.4 12 Sudoeste 31 Oeste 1.8 -- -- 91
2021-02-07 02:00:00 6.8 12 Sudoeste 40 Norte 0.6 -- -- 87
2021-02-07 01:00:00 7.9 10 Oeste 29 Noroeste 0 -- -- 78
2021-02-07 00:00:00 7.7 17 Noroeste 37 Noroeste 0 -- -- 84
2021-02-06 23:00:00 7.2 9 Oeste 34 Noroeste 0.4 -- -- 86
2021-02-06 22:00:00 7.5 9 Noroeste 41 Noroeste 0.2 -- -- 86
2021-02-06 21:00:00 8.5 11 Oeste 24 Oeste 0 -- -- 80
2021-02-06 20:00:00 8.3 9 Noroeste 27 Noroeste 0 -- -- 88
2021-02-06 19:00:00 8.3 8 Noroeste 33 Noroeste 1.8 -- -- 96
2021-02-06 18:00:00 8.1 12 Oeste 51 Oeste 4.4 -- -- 97
2021-02-06 17:00:00 8.7 19 Noroeste 58 Noroeste 5.6 -- -- 98
2021-02-06 16:00:00 9.1 12 Noroeste 46 Noroeste 6 -- -- 98
2021-02-06 15:00:00 9.6 24 Noroeste 44 Noroeste 4.4 -- -- 99
2021-02-06 14:00:00 10.6 7 Noroeste 13 Noroeste 1.2 -- -- 99
2021-02-06 13:00:00 10.8 4 Noroeste 8 Oeste 1.6 -- -- 98
2021-02-06 12:00:00 10.7 0 Calma 6 Oeste 1.4 -- -- 99
2021-02-06 11:00:00 10.4 4 Oeste 8 Noroeste 2 -- -- 99
2021-02-06 10:00:00 10.1 0 Calma 10 Oeste 2 -- -- 98
2021-02-06 09:00:00 10 0 Calma 6 Oeste 0.8 -- -- 98
2021-02-06 08:00:00 9.9 0 Calma 5 Oeste 0.4 -- -- 98
2021-02-06 07:00:00 9.9 4 Oeste 8 Oeste 0 -- -- 97
2021-02-06 06:00:00 10 0 Calma 7 Nordeste 0 -- -- 97
2021-02-06 05:00:00 10.1 3 Nordeste 7 Este 0 -- -- 97
2021-02-06 04:00:00 10.2 2 Este 10 Este 0 -- -- 97
2021-02-06 03:00:00 10.4 2 Nordeste 6 Sudeste 0 -- -- 97
2021-02-06 02:00:00 10.4 5 Oeste 7 Oeste 0 -- -- 96
2021-02-06 01:00:00 10.6 3 Oeste 5 Noroeste 0 -- -- 96
2021-02-06 00:00:00 10.7 4 Sudoeste 12 Sudoeste 0 -- -- 96
2021-02-05 23:00:00 10.6 7 Sudoeste 11 Sudoeste 0 -- -- 97
2021-02-05 22:00:00 10.6 0 Calma 4 Norte 0 -- -- 97
2021-02-05 21:00:00 10.7 3 Noroeste 9 Oeste 0 -- -- 97
2021-02-05 20:00:00 10.6 0 Calma 11 Oeste 0 -- -- 97
2021-02-05 19:00:00 10.8 4 Sur 10 Norte 0 -- -- 97
2021-02-05 18:00:00 11 4 Norte 13 Norte 0 -- -- 96
2021-02-05 17:00:00 11.2 5 Norte 13 Norte 0 -- -- 96
2021-02-05 16:00:00 11.4 5 Norte 13 Norte 0 -- -- 96
2021-02-05 15:00:00 12 2 Nordeste 9 Norte 0 -- -- 96
2021-02-05 14:00:00 11.6 3 Norte 10 Noroeste 0 -- -- 96
2021-02-05 13:00:00 11.6 5 Nordeste 12 Nordeste 0 -- -- 96
2021-02-05 12:00:00 12 4 Norte 8 Norte 0 -- -- 97
2021-02-05 11:00:00 11.7 0 Calma 8 Noroeste 0 -- -- 97
2021-02-05 10:00:00 11.3 0 Calma 6 Oeste 0 -- -- 98
2021-02-05 09:00:00 10.8 5 Oeste 8 Oeste 0 -- -- 97
2021-02-05 08:00:00 10.7 5 Oeste 10 Oeste 0 -- -- 97
2021-02-05 07:00:00 10.9 2 Sur 9 Oeste 0.8 -- -- 96
2021-02-05 06:00:00 11 6 Sudoeste 11 Sudoeste 0 -- -- 96
2021-02-05 05:00:00 11 0 Calma 7 Oeste 0 -- -- 95
2021-02-05 04:00:00 11.1 6 Sudoeste 13 Sudoeste 0 -- -- 95
2021-02-05 03:00:00 11.1 5 Sudoeste 15 Oeste 0 -- -- 95
2021-02-05 02:00:00 11.1 7 Oeste 19 Oeste 0 -- -- 96
2021-02-05 01:00:00 11.3 9 Sudoeste 23 Sudoeste 0 -- -- 95
2021-02-05 00:00:00 11.6 10 Sudoeste 31 Sudoeste 0 -- -- 95
2021-02-04 23:00:00 12.3 9 Sudoeste 19 Oeste 0 -- -- 93
2021-02-04 22:00:00 12.4 6 Sudoeste 18 Oeste 0 -- -- 92
2021-02-04 21:00:00 12.5 4 Oeste 9 Oeste 0 -- -- 88
2021-02-04 20:00:00 13 5 Noroeste 8 Oeste 0 -- -- 86
2021-02-04 19:00:00 13.8 5 Este 18 Nordeste 0 -- -- 83
2021-02-04 18:00:00 14.3 6 Este 15 Este 0 -- -- 81
2021-02-04 17:00:00 14.6 4 Nordeste 10 Norte 0 -- -- 84
2021-02-04 16:00:00 14.4 4 Norte 8 Noroeste 0 -- -- 85
2021-02-04 15:00:00 14.5 4 Norte 10 Nordeste 0 -- -- 84
2021-02-04 14:00:00 14.4 0 Calma -- -- 0 -- -- 82
2021-02-04 13:00:00 13.9 0 Calma -- -- 0 -- -- 87
2021-02-04 12:00:00 13.6 0 Calma -- -- -- -- -- 81
2021-02-04 11:00:00 -- -- -- -- -- -- -- -- --
2021-02-04 10:00:00 13.6 0 Calma 4 Noroeste 0.2 -- -- 80
2021-02-04 09:00:00 13.9 3 Noroeste 8 Oeste 0 -- -- 76
2021-02-04 08:00:00 13.9 3 Noroeste 8 Noroeste 0 -- -- 75
2021-02-04 07:00:00 14.5 2 Nordeste 9 Norte 0 -- -- 71
2021-02-04 06:00:00 15.1 7 Norte 15 Sur 0 -- -- 68
2021-02-04 05:00:00 15.5 4 Sudoeste 21 Oeste 0 -- -- 65
2021-02-04 04:00:00 16.1 11 Oeste 24 Oeste 0 -- -- 62
2021-02-04 03:00:00 16.3 7 Sudoeste 31 Sur 0 -- -- 60
2021-02-04 02:00:00 16.3 13 Sur 37 Sur 0 -- -- 61
2021-02-04 01:00:00 15.5 11 Sudeste 24 Sudeste 0 -- -- 64
2021-02-04 00:00:00 13.8 3 Sudeste 9 Oeste 0 -- -- 66
2021-02-03 23:00:00 14 6 Oeste 15 Sudeste 0 -- -- 67
2021-02-03 22:00:00 14.3 6 Sur 14 Oeste 0 -- -- 64
2021-02-03 21:00:00 13.4 7 Sudoeste 15 Sur 0 -- -- 69
2021-02-03 20:00:00 12.3 4 Oeste 6 Oeste 0 -- -- 76
2021-02-03 19:00:00 12.9 3 Oeste 9 Nordeste 0 -- -- 71
2021-02-03 18:00:00 13.7 4 Nordeste 12 Este 0 -- -- 67
2021-02-03 17:00:00 14.5 4 Este 17 Este 0 -- -- 64
2021-02-03 16:00:00 15.6 7 Este 16 Nordeste 0 -- -- 65
2021-02-03 15:00:00 16.3 6 Nordeste 18 Nordeste 0 -- -- 62
2021-02-03 14:00:00 16.4 6 Este 18 Nordeste 0 -- -- 69
2021-02-03 13:00:00 15.2 7 Nordeste 20 Norte 0 -- -- 71
2021-02-03 12:00:00 15.4 6 Norte 28 Oeste 0 -- -- 72
2021-02-03 11:00:00 17.5 12 Oeste 28 Oeste 0 -- -- 56
2021-02-03 10:00:00 17.1 11 Sudoeste 23 Sudoeste 0 -- -- 56
2021-02-03 09:00:00 16.2 8 Sudoeste 33 Oeste 0 -- -- 57
2021-02-03 08:00:00 15.8 11 Sudoeste 46 Sudeste 0 -- -- 58
2021-02-03 07:00:00 15.9 15 Sur 42 Sudeste 0 -- -- 58
2021-02-03 06:00:00 16.4 15 Sur 37 Sudoeste 0 -- -- 56
2021-02-03 05:00:00 16.7 10 Sudoeste 36 Sudeste 0 -- -- 55
2021-02-03 04:00:00 16.2 3 Sudeste 24 Sudoeste 0 -- -- 57
2021-02-03 03:00:00 16.5 6 Sudoeste 22 Sudoeste 0 -- -- 56
2021-02-03 02:00:00 17.5 14 Sur 43 Sudeste 0 -- -- 52
2021-02-03 01:00:00 17.2 14 Sur 55 Sur 0 -- -- 53
2021-02-03 00:00:00 17 15 Sudoeste 29 Sudoeste 0 -- -- 54
2021-02-02 23:00:00 17.3 8 Sudoeste 19 Sudoeste 0 -- -- 55
2021-02-02 22:00:00 18.1 8 Sudoeste 25 Sur 0 -- -- 53
2021-02-02 21:00:00 18.3 6 Sudoeste 34 Sur 0 -- -- 54
2021-02-02 20:00:00 17.3 8 Sudeste 22 Este 0 -- -- 58
2021-02-02 19:00:00 16.7 3 Este 14 Norte 0 -- -- 62
2021-02-02 18:00:00 17.1 5 Sudoeste 21 Sudoeste 0 -- -- 59
2021-02-02 17:00:00 18 14 Oeste 33 Oeste 0 -- -- 56
2021-02-02 16:00:00 20.3 10 Oeste 28 Sur 0 -- -- 51
2021-02-02 15:00:00 21.4 10 Oeste 28 Sudeste 0 -- -- 48
2021-02-02 14:00:00 21.3 11 Sur 25 Sudeste 0 -- -- 48
2021-02-02 13:00:00 20.3 6 Oeste 14 Oeste 0 -- -- 52
2021-02-02 12:00:00 18 6 Oeste 15 Oeste 0 -- -- 63
2021-02-02 11:00:00 15.9 4 Nordeste 6 Nordeste 0 -- -- 65
2021-02-02 10:00:00 14.1 2 Este 6 Sur 0 -- -- 69
2021-02-02 09:00:00 13.6 4 Oeste 11 Noroeste 0 -- -- 72
2021-02-02 08:00:00 13.4 8 Noroeste 15 Oeste 0 -- -- 73
2021-02-02 07:00:00 13.2 5 Sudoeste 11 Sudoeste 0 -- -- 74
2021-02-02 06:00:00 13.5 5 Oeste 15 Sudoeste 0 -- -- 73
2021-02-02 05:00:00 13.9 6 Oeste 12 Sudoeste 0 -- -- 72
2021-02-02 04:00:00 14.6 6 Oeste 13 Sudoeste 0 -- -- 71
2021-02-02 03:00:00 13.3 8 Oeste 17 Oeste 0 -- -- 83
2021-02-02 02:00:00 13.1 8 Oeste 15 Sudoeste 0 -- -- 86
2021-02-02 01:00:00 12.4 5 Oeste 14 Oeste 0 -- -- 90
2021-02-02 00:00:00 11.8 0 Calma 6 Oeste 0 -- -- 94
2021-02-01 23:00:00 11.8 6 Oeste 11 Sur 0.2 -- -- 93
2021-02-01 22:00:00 12.3 7 Sudoeste 18 Sudoeste 0.4 -- -- 90
2021-02-01 21:00:00 12.6 12 Sudoeste 20 Sudoeste 0.8 -- -- 89
2021-02-01 20:00:00 13.2 9 Sudoeste 21 Sudoeste 0.2 -- -- 85
2021-02-01 19:00:00 13.4 8 Oeste 26 Oeste 0 -- -- 81
2021-02-01 18:00:00 13.5 9 Oeste 24 Oeste 0 -- -- 82
2021-02-01 17:00:00 13.4 6 Oeste 39 Oeste 0 -- -- 84
2021-02-01 16:00:00 13.3 15 Oeste 40 Oeste 0 -- -- 84
2021-02-01 15:00:00 13.3 17 Oeste 61 Sudoeste 0 -- -- 84
2021-02-01 14:00:00 13.4 17 Oeste 54 Oeste 0 -- -- 81
2021-02-01 13:00:00 13.4 22 Oeste 55 Oeste 0 -- -- 80
2021-02-01 12:00:00 13.3 18 Oeste 45 Oeste 0 -- -- 81
2021-02-01 11:00:00 13.1 19 Oeste 49 Oeste 0 -- -- 80
2021-02-01 10:00:00 13.2 22 Oeste 57 Oeste 0 -- -- 76
2021-02-01 09:00:00 12.9 19 Oeste 58 Oeste 0 -- -- 76
2021-02-01 08:00:00 12.9 20 Oeste 60 Oeste 0 -- -- 78
2021-02-01 07:00:00 12.8 18 Oeste 54 Oeste 0 -- -- 79
2021-02-01 06:00:00 12.8 20 Oeste 54 Oeste 0 -- -- 79
2021-02-01 05:00:00 12.7 24 Oeste 69 Oeste 0 -- -- 79
2021-02-01 04:00:00 12.6 19 Oeste 60 Oeste 0 -- -- 80
2021-02-01 03:00:00 12.7 19 Oeste 58 Oeste 0 -- -- 79
2021-02-01 02:00:00 12 16 Oeste 55 Oeste 0 -- -- 84
2021-02-01 01:00:00 12.5 41 Oeste 81 Noroeste 0 -- -- 82
2021-02-01 00:00:00 13.3 14 Oeste 48 Noroeste 0 -- -- 78
2021-01-31 23:00:00 12.9 12 Oeste 40 Oeste 0.6 -- -- 87
2021-01-31 22:00:00 12.5 14 Sudoeste 35 Oeste 0 -- -- 93
2021-01-31 21:00:00 10.6 9 Oeste 14 Oeste 0 -- -- 95
2021-01-31 20:00:00 11.1 7 Oeste 11 Noroeste 0 -- -- 94
2021-01-31 19:00:00 11.8 2 Nordeste 8 Noroeste 0 -- -- 91
2021-01-31 18:00:00 13 0 Calma 16 Oeste 0 -- -- 87
2021-01-31 17:00:00 13.4 5 Oeste 24 Oeste 0 -- -- 88
2021-01-31 16:00:00 12.4 14 Sudoeste 42 Oeste 0 -- -- 92
2021-01-31 15:00:00 12.3 18 Oeste 43 Sudoeste 0.2 -- -- 90
2021-01-31 14:00:00 11.2 11 Oeste 28 Oeste 0.6 -- -- 94
2021-01-31 13:00:00 10.7 9 Oeste 22 Sudoeste 1.4 -- -- 93
2021-01-31 12:00:00 10.9 9 Sudoeste 24 Sudoeste 1.2 -- -- 91
2021-01-31 11:00:00 11.5 9 Sudoeste 29 Oeste 0 -- -- 83
2021-01-31 10:00:00 11.2 14 Oeste 45 Oeste 0 -- -- 88
2021-01-31 09:00:00 10.1 17 Oeste 54 Noroeste 0.4 -- -- 93
2021-01-31 08:00:00 9.5 14 Oeste 54 Oeste 2.8 -- -- 95
2021-01-31 07:00:00 9.9 22 Oeste 65 Oeste 0.8 -- -- 93
2021-01-31 06:00:00 10.3 22 Oeste 75 Noroeste 0 -- -- 88
2021-01-31 05:00:00 10.6 30 Oeste 81 Sudoeste 0 -- -- 86
2021-01-31 04:00:00 11 30 Oeste 80 Oeste 0 -- -- 81
2021-01-31 03:00:00 10.6 28 Oeste 77 Oeste 0 -- -- 85
2021-01-31 02:00:00 11 26 Oeste 65 Noroeste 0 -- -- 81
2021-01-31 01:00:00 10.9 23 Oeste 77 Oeste 0.2 -- -- 79
2021-01-31 00:00:00 10.9 20 Oeste 57 Oeste 0 -- -- 75
2021-01-30 23:00:00 10 14 Oeste 44 Oeste 0.2 -- -- 81
2021-01-30 22:00:00 10.2 16 Oeste 44 Oeste 0.2 -- -- 76
2021-01-30 21:00:00 9.6 9 Sudoeste 33 Oeste 1.2 -- -- 81
2021-01-30 20:00:00 11.3 15 Oeste 27 Oeste 0 -- -- 63
2021-01-30 19:00:00 11 10 Oeste 29 Sudoeste 0 -- -- 69
2021-01-30 18:00:00 11.2 11 Oeste 57 Oeste 0 -- -- 72
2021-01-30 17:00:00 11.8 16 Oeste 32 Sudoeste 0 -- -- 67
2021-01-30 16:00:00 12 15 Oeste 38 Oeste 0 -- -- 69
2021-01-30 15:00:00 11.4 14 Sudoeste 35 Oeste 0 -- -- 74
2021-01-30 14:00:00 12 21 Oeste 57 Oeste 0 -- -- 73
2021-01-30 13:00:00 11.5 6 Oeste 28 Sudoeste 0.2 -- -- 85
2021-01-30 12:00:00 10 17 Sudoeste 36 Oeste 4.8 -- -- 89
2021-01-30 11:00:00 11.3 14 Oeste 32 Oeste 1.4 -- -- 87
2021-01-30 10:00:00 12 7 Oeste 23 Sudoeste 0 -- -- 86
2021-01-30 09:00:00 11.1 14 Sudoeste 35 Norte 2.4 -- -- 94
2021-01-30 08:00:00 12.1 10 Noroeste 22 Noroeste 6.2 -- -- 96
2021-01-30 07:00:00 12.2 6 Nordeste 17 Este 0 -- -- 95
2021-01-30 06:00:00 12.7 5 Sudeste 22 Oeste 3.2 -- -- 93
2021-01-30 05:00:00 14.1 8 Oeste 32 Oeste 1 -- -- 84
2021-01-30 04:00:00 17.3 12 Sudoeste 36 Sudoeste 0 -- -- 55
2021-01-30 03:00:00 17.5 16 Sudoeste 33 Oeste 0 -- -- 57
2021-01-30 02:00:00 17.1 11 Sudoeste 33 Sudoeste 0 -- -- 60
2021-01-30 01:00:00 17.2 12 Oeste 28 Sudoeste 0 -- -- 59
2021-01-30 00:00:00 16 7 Sudoeste 16 Sur 0 -- -- 66